createdAt,value
2017-06-20T00:00:28.222Z,20.65
2017-06-20T00:01:24.467Z,20.62
2017-06-20T00:02:20.716Z,20.62
2017-06-20T00:03:16.977Z,20.59
2017-06-20T00:04:13.227Z,20.58
2017-06-20T00:05:09.483Z,20.57
2017-06-20T00:06:05.719Z,20.55
2017-06-20T00:07:01.958Z,20.54
2017-06-20T00:07:58.210Z,20.53
2017-06-20T00:08:54.455Z,20.52
2017-06-20T00:09:50.723Z,20.51
2017-06-20T00:10:46.959Z,20.48
2017-06-20T00:11:43.206Z,20.48
2017-06-20T00:12:39.458Z,20.46
2017-06-20T00:13:35.698Z,20.44
2017-06-20T00:14:31.934Z,20.43
2017-06-20T00:15:28.226Z,20.42
2017-06-20T00:16:24.463Z,20.41
2017-06-20T00:17:20.711Z,20.40
2017-06-20T00:18:16.966Z,20.39
2017-06-20T00:19:13.203Z,20.37
2017-06-20T00:20:09.459Z,20.36
2017-06-20T00:21:05.735Z,20.35
2017-06-20T00:22:01.975Z,20.33
2017-06-20T00:22:58.219Z,20.31
2017-06-20T00:23:54.467Z,20.30
2017-06-20T00:24:50.711Z,20.29
2017-06-20T00:25:46.983Z,20.29
2017-06-20T00:26:43.230Z,20.25
2017-06-20T00:27:39.466Z,20.24
2017-06-20T00:28:35.714Z,20.23
2017-06-20T00:29:31.955Z,20.22
2017-06-20T00:30:28.199Z,20.19
2017-06-20T00:31:24.466Z,20.19
2017-06-20T00:32:20.730Z,20.16
2017-06-20T00:33:16.979Z,20.16
2017-06-20T00:34:13.222Z,20.15
2017-06-20T00:35:09.469Z,20.12
2017-06-20T00:36:05.739Z,20.12
2017-06-20T00:37:01.986Z,20.10
2017-06-20T00:37:58.223Z,20.09
2017-06-20T00:38:54.462Z,20.07
2017-06-20T00:39:50.690Z,20.07
2017-06-20T00:40:46.926Z,20.05
2017-06-20T00:41:43.178Z,20.04
2017-06-20T00:42:39.414Z,20.02
2017-06-20T00:43:35.742Z,20.01
2017-06-20T00:44:31.994Z,20.00
2017-06-20T00:45:28.254Z,19.98
2017-06-20T00:46:24.515Z,19.97
2017-06-20T00:47:20.773Z,19.96
2017-06-20T00:48:17.026Z,19.95
2017-06-20T00:49:13.429Z,19.93
2017-06-20T00:50:09.671Z,19.92
2017-06-20T00:51:05.918Z,19.91
2017-06-20T00:52:02.187Z,19.89
2017-06-20T00:52:58.427Z,19.87
2017-06-20T00:53:54.670Z,19.86
2017-06-20T00:54:50.931Z,19.85
2017-06-20T00:55:47.180Z,19.84
2017-06-20T00:56:43.442Z,19.83
2017-06-20T00:57:39.699Z,19.81
2017-06-20T00:58:35.942Z,19.81
2017-06-20T00:59:32.182Z,19.80
2017-06-20T01:00:28.434Z,19.79
2017-06-20T01:01:24.675Z,19.78
2017-06-20T01:02:20.931Z,19.77
2017-06-20T01:03:17.175Z,19.76
2017-06-20T01:04:13.434Z,19.74
2017-06-20T01:05:09.687Z,19.73
2017-06-20T01:06:05.946Z,19.72
2017-06-20T01:07:02.207Z,19.72
2017-06-20T01:07:58.487Z,19.70
2017-06-20T01:08:54.762Z,19.68
2017-06-20T01:09:51.006Z,19.67
2017-06-20T01:10:47.251Z,19.66
2017-06-20T01:11:43.519Z,19.65
2017-06-20T01:12:39.794Z,19.65
2017-06-20T01:13:36.042Z,19.64
2017-06-20T01:14:32.282Z,19.63
2017-06-20T01:15:28.532Z,19.61
2017-06-20T01:16:24.784Z,19.60
2017-06-20T01:17:21.038Z,19.58
2017-06-20T01:18:17.307Z,19.56
2017-06-20T01:19:13.667Z,19.56
2017-06-20T01:20:09.910Z,19.55
2017-06-20T01:21:06.159Z,19.53
2017-06-20T01:22:02.402Z,19.52
2017-06-20T01:22:58.683Z,19.51
2017-06-20T01:23:54.948Z,19.50
2017-06-20T01:24:51.182Z,19.49
2017-06-20T01:25:47.426Z,19.48
2017-06-20T01:26:43.675Z,19.47
2017-06-20T01:27:39.915Z,19.47
2017-06-20T01:28:36.174Z,19.45
2017-06-20T01:29:32.422Z,19.44
2017-06-20T01:30:28.696Z,19.43
2017-06-20T01:31:24.952Z,19.42
2017-06-20T01:32:21.202Z,19.41
2017-06-20T01:33:17.471Z,19.40
2017-06-20T01:34:13.735Z,19.40
2017-06-20T01:35:09.967Z,19.39
2017-06-20T01:36:06.219Z,19.38
2017-06-20T01:37:02.460Z,19.38
2017-06-20T01:37:58.706Z,19.37
2017-06-20T01:38:54.959Z,19.36
2017-06-20T01:39:51.218Z,19.34
2017-06-20T01:40:47.466Z,19.33
2017-06-20T01:41:43.715Z,19.33
2017-06-20T01:42:39.963Z,19.31
2017-06-20T01:43:36.194Z,19.31
2017-06-20T01:44:32.438Z,19.30
2017-06-20T01:45:28.719Z,19.30
2017-06-20T01:46:24.957Z,19.28
2017-06-20T01:47:21.226Z,19.28
2017-06-20T01:48:17.484Z,19.26
2017-06-20T01:49:13.730Z,19.25
2017-06-20T01:50:09.991Z,19.24
2017-06-20T01:51:06.222Z,19.24
2017-06-20T01:52:02.467Z,19.22
2017-06-20T01:52:58.733Z,19.23
2017-06-20T01:53:54.993Z,19.21
2017-06-20T01:54:51.242Z,19.19
2017-06-20T01:55:47.511Z,19.19
2017-06-20T01:56:43.763Z,19.17
2017-06-20T01:57:40.006Z,19.17
2017-06-20T01:58:36.267Z,19.16
2017-06-20T01:59:32.514Z,19.14
2017-06-20T02:00:28.763Z,19.13
2017-06-20T02:01:25.022Z,19.12
2017-06-20T02:02:21.275Z,19.12
2017-06-20T02:03:17.514Z,19.10
2017-06-20T02:04:13.759Z,19.09
2017-06-20T02:05:10.019Z,19.08
2017-06-20T02:06:06.270Z,19.07
2017-06-20T02:07:02.534Z,19.06
2017-06-20T02:07:58.786Z,19.05
2017-06-20T02:08:55.030Z,19.05
2017-06-20T02:09:51.285Z,19.03
2017-06-20T02:10:47.534Z,19.02
2017-06-20T02:11:43.774Z,19.02
2017-06-20T02:12:40.035Z,19.00
2017-06-20T02:13:36.283Z,18.99
2017-06-20T02:14:32.526Z,18.98
2017-06-20T02:15:28.779Z,18.96
2017-06-20T02:16:25.038Z,18.96
2017-06-20T02:17:21.298Z,18.95
2017-06-20T02:18:17.534Z,18.93
2017-06-20T02:19:13.814Z,18.93
2017-06-20T02:20:10.066Z,18.91
2017-06-20T02:21:06.319Z,18.90
2017-06-20T02:22:02.563Z,18.89
2017-06-20T02:22:58.836Z,18.88
2017-06-20T02:23:55.089Z,18.88
2017-06-20T02:24:51.331Z,18.87
2017-06-20T02:25:47.591Z,18.85
2017-06-20T02:26:43.851Z,18.84
2017-06-20T02:27:40.118Z,18.83
2017-06-20T02:28:36.383Z,18.82
2017-06-20T02:29:32.627Z,18.82
2017-06-20T02:30:28.863Z,18.80
2017-06-20T02:31:25.111Z,18.79
2017-06-20T02:32:21.359Z,18.78
2017-06-20T02:33:17.630Z,18.77
2017-06-20T02:34:13.891Z,18.77
2017-06-20T02:35:10.159Z,18.75
2017-06-20T02:36:06.410Z,18.74
2017-06-20T02:37:02.651Z,18.73
2017-06-20T02:37:58.909Z,18.72
2017-06-20T02:38:55.168Z,18.71
2017-06-20T02:39:51.418Z,18.71
2017-06-20T02:40:47.665Z,18.69
2017-06-20T02:41:43.918Z,18.68
2017-06-20T02:42:40.182Z,18.67
2017-06-20T02:43:36.435Z,18.66
2017-06-20T02:44:32.674Z,18.65
2017-06-20T02:45:28.928Z,18.64
2017-06-20T02:46:25.219Z,18.63
2017-06-20T02:47:21.471Z,18.62
2017-06-20T02:48:17.710Z,18.61
2017-06-20T02:49:13.970Z,18.61
2017-06-20T02:50:10.218Z,18.60
2017-06-20T02:51:06.470Z,18.59
2017-06-20T02:52:02.726Z,18.58
2017-06-20T02:52:58.982Z,18.58
2017-06-20T02:53:55.243Z,18.56
2017-06-20T02:54:51.502Z,18.55
2017-06-20T02:55:47.763Z,18.49
2017-06-20T02:56:43.998Z,18.42
2017-06-20T02:57:40.257Z,18.36
2017-06-20T02:58:36.511Z,18.30
2017-06-20T02:59:32.774Z,18.24
2017-06-20T03:00:29.026Z,18.20
2017-06-20T03:01:25.266Z,18.16
2017-06-20T03:02:21.510Z,18.12
2017-06-20T03:03:17.770Z,18.08
2017-06-20T03:04:14.010Z,18.05
2017-06-20T03:05:10.266Z,18.01
2017-06-20T03:06:06.528Z,17.98
2017-06-20T03:07:02.782Z,17.96
2017-06-20T03:07:59.255Z,17.93
2017-06-20T03:08:56.282Z,17.91
2017-06-20T03:09:52.539Z,17.87
2017-06-20T03:10:48.806Z,17.85
2017-06-20T03:11:45.065Z,17.81
2017-06-20T03:12:41.328Z,17.80
2017-06-20T03:13:37.575Z,17.77
2017-06-20T03:14:33.834Z,17.75
2017-06-20T03:15:30.075Z,17.72
2017-06-20T03:16:26.335Z,17.71
2017-06-20T03:17:22.583Z,17.69
2017-06-20T03:18:18.826Z,17.67
2017-06-20T03:19:15.062Z,17.67
2017-06-20T03:20:11.323Z,17.62
2017-06-20T03:21:07.599Z,17.62
2017-06-20T03:22:03.843Z,17.60
2017-06-20T03:23:00.095Z,17.59
2017-06-20T03:23:56.345Z,17.57
2017-06-20T03:24:52.595Z,17.56
2017-06-20T03:25:48.834Z,17.55
2017-06-20T03:26:45.111Z,17.54
2017-06-20T03:27:41.350Z,17.52
2017-06-20T03:28:37.647Z,17.50
2017-06-20T03:29:33.908Z,17.49
2017-06-20T03:30:30.147Z,17.48
2017-06-20T03:31:26.390Z,17.47
2017-06-20T03:32:22.641Z,17.46
2017-06-20T03:33:18.884Z,17.44
2017-06-20T03:34:15.127Z,17.44
2017-06-20T03:35:11.372Z,17.42
2017-06-20T03:36:07.618Z,17.41
2017-06-20T03:37:03.870Z,17.40
2017-06-20T03:38:00.130Z,17.39
2017-06-20T03:38:56.358Z,17.38
2017-06-20T03:39:52.634Z,17.37
2017-06-20T03:40:48.887Z,17.36
2017-06-20T03:41:45.134Z,17.36
2017-06-20T03:42:41.382Z,17.34
2017-06-20T03:43:37.643Z,17.34
2017-06-20T03:44:33.903Z,17.33
2017-06-20T03:45:30.149Z,17.33
2017-06-20T03:46:26.378Z,17.32
2017-06-20T03:47:22.619Z,17.31
2017-06-20T03:48:18.886Z,17.31
2017-06-20T03:49:15.138Z,17.30
2017-06-20T03:50:11.375Z,17.29
2017-06-20T03:51:07.622Z,17.29
2017-06-20T03:52:03.862Z,17.29
2017-06-20T03:53:00.127Z,17.29
2017-06-20T03:53:56.402Z,17.28
2017-06-20T03:54:52.666Z,17.28
2017-06-20T03:55:48.927Z,17.29
2017-06-20T03:56:45.175Z,17.28
2017-06-20T03:57:41.418Z,17.27
2017-06-20T03:58:37.659Z,17.27
2017-06-20T03:59:33.914Z,17.27
2017-06-20T04:00:30.162Z,17.27
2017-06-20T04:01:26.402Z,17.26
2017-06-20T04:02:22.719Z,17.27
2017-06-20T04:03:18.974Z,17.27
2017-06-20T04:04:15.254Z,17.27
2017-06-20T04:05:11.496Z,17.26
2017-06-20T04:06:07.750Z,17.27
2017-06-20T04:07:03.991Z,17.28
2017-06-20T04:08:00.234Z,17.27
2017-06-20T04:08:56.490Z,17.27
2017-06-20T04:09:52.758Z,17.27
2017-06-20T04:10:49.003Z,17.28
2017-06-20T04:11:45.266Z,17.29
2017-06-20T04:12:41.518Z,17.29
2017-06-20T04:13:37.762Z,17.28
2017-06-20T04:14:34.019Z,17.28
2017-06-20T04:15:30.274Z,17.28
2017-06-20T04:16:26.542Z,17.28
2017-06-20T04:17:22.787Z,17.29
2017-06-20T04:18:19.038Z,17.29
2017-06-20T04:19:15.300Z,17.31
2017-06-20T04:20:11.552Z,17.30
2017-06-20T04:21:07.873Z,17.31
2017-06-20T04:22:08.814Z,17.31
2017-06-20T04:23:05.067Z,17.32
2017-06-20T04:24:01.314Z,17.33
2017-06-20T04:24:57.565Z,17.34
2017-06-20T04:25:54.011Z,17.35
2017-06-20T04:26:50.331Z,17.34
2017-06-20T04:27:46.635Z,17.36
2017-06-20T04:28:42.943Z,17.37
2017-06-20T04:29:39.226Z,17.37
2017-06-20T04:30:35.470Z,17.39
2017-06-20T04:31:31.797Z,17.40
2017-06-20T04:32:28.034Z,17.40
2017-06-20T04:33:24.290Z,17.42
2017-06-20T04:34:20.550Z,17.43
2017-06-20T04:35:16.794Z,17.43
2017-06-20T04:36:13.035Z,17.44
2017-06-20T04:38:11.406Z,17.47
2017-06-20T04:39:07.650Z,17.48
2017-06-20T04:40:03.890Z,17.48
2017-06-20T04:41:00.135Z,17.50
2017-06-20T04:41:56.374Z,17.51
2017-06-20T04:42:52.642Z,17.53
2017-06-20T04:43:48.891Z,17.53
2017-06-20T04:44:45.134Z,17.55
2017-06-20T04:45:41.382Z,17.57
2017-06-20T04:46:37.622Z,17.59
2017-06-20T04:47:33.904Z,17.60
2017-06-20T04:48:30.146Z,17.61
2017-06-20T04:49:26.402Z,17.63
2017-06-20T04:50:22.657Z,17.66
2017-06-20T04:51:18.903Z,17.67
2017-06-20T04:52:15.157Z,17.69
2017-06-20T04:53:11.414Z,17.71
2017-06-20T04:54:07.658Z,17.71
2017-06-20T04:55:03.894Z,17.74
2017-06-20T04:56:00.142Z,17.76
2017-06-20T04:56:56.403Z,17.77
2017-06-20T04:57:52.651Z,17.78
2017-06-20T04:58:48.899Z,17.82
2017-06-20T04:59:45.158Z,17.83
2017-06-20T05:00:41.410Z,17.85
2017-06-20T05:01:37.662Z,17.88
2017-06-20T05:02:33.916Z,17.89
2017-06-20T05:03:30.174Z,17.91
2017-06-20T05:04:26.414Z,17.93
2017-06-20T05:05:22.667Z,17.94
2017-06-20T05:06:18.915Z,17.97
2017-06-20T05:07:15.159Z,18.01
2017-06-20T05:08:11.399Z,18.02
2017-06-20T05:09:07.659Z,18.06
2017-06-20T05:10:03.907Z,18.07
2017-06-20T05:11:00.165Z,18.09
2017-06-20T05:11:56.407Z,18.12
2017-06-20T05:12:52.634Z,18.13
2017-06-20T05:13:48.879Z,18.17
2017-06-20T05:14:45.143Z,18.20
2017-06-20T05:15:41.423Z,18.22
2017-06-20T05:16:37.664Z,18.24
2017-06-20T05:17:33.907Z,18.26
2017-06-20T05:18:30.150Z,18.30
2017-06-20T05:19:26.414Z,18.34
2017-06-20T05:20:22.778Z,18.37
2017-06-20T05:21:19.030Z,18.39
2017-06-20T05:22:15.274Z,18.41
2017-06-20T05:23:11.515Z,18.44
2017-06-20T05:24:07.766Z,18.48
2017-06-20T05:25:04.250Z,18.50
2017-06-20T05:26:00.486Z,18.52
2017-06-20T05:26:56.742Z,18.54
2017-06-20T05:27:52.979Z,18.57
2017-06-20T05:28:49.207Z,18.58
2017-06-20T05:29:45.519Z,18.61
2017-06-20T05:30:41.788Z,18.65
2017-06-20T05:31:38.042Z,18.66
2017-06-20T05:32:34.298Z,18.69
2017-06-20T05:33:30.558Z,18.72
2017-06-20T05:34:26.803Z,18.74
2017-06-20T05:35:23.059Z,18.76
2017-06-20T05:36:19.303Z,18.79
2017-06-20T05:37:15.550Z,18.83
2017-06-20T05:38:11.799Z,18.85
2017-06-20T05:39:08.038Z,18.88
2017-06-20T05:40:04.287Z,18.91
2017-06-20T05:41:00.568Z,18.94
2017-06-20T05:41:56.819Z,18.98
2017-06-20T05:42:53.066Z,19.00
2017-06-20T05:43:49.308Z,19.04
2017-06-20T05:44:45.547Z,19.06
2017-06-20T05:45:41.798Z,19.10
2017-06-20T05:46:38.051Z,19.14
2017-06-20T05:47:34.311Z,19.18
2017-06-20T05:48:30.552Z,19.20
2017-06-20T05:49:26.790Z,19.24
2017-06-20T05:50:23.055Z,19.26
2017-06-20T05:51:19.339Z,19.31
2017-06-20T05:52:15.595Z,19.32
2017-06-20T05:53:11.862Z,19.36
2017-06-20T05:54:08.106Z,19.39
2017-06-20T05:55:04.355Z,19.43
2017-06-20T05:56:00.599Z,19.45
2017-06-20T05:56:57.086Z,19.49
2017-06-20T05:57:53.347Z,19.54
2017-06-20T05:58:49.582Z,19.57
2017-06-20T05:59:45.833Z,19.61
2017-06-20T06:00:42.074Z,19.65
2017-06-20T06:01:38.347Z,19.67
2017-06-20T06:02:34.598Z,19.71
2017-06-20T06:03:30.847Z,19.75
2017-06-20T06:04:27.094Z,19.78
2017-06-20T06:05:23.339Z,19.80
2017-06-20T06:06:19.590Z,19.84
2017-06-20T06:07:15.850Z,19.86
2017-06-20T06:08:12.111Z,19.88
2017-06-20T06:09:08.366Z,19.93
2017-06-20T06:10:04.609Z,19.94
2017-06-20T06:11:00.935Z,19.97
2017-06-20T06:11:57.166Z,20.00
2017-06-20T06:12:53.431Z,20.03
2017-06-20T06:13:49.682Z,20.05
2017-06-20T06:14:45.923Z,20.07
2017-06-20T06:15:42.167Z,20.11
2017-06-20T06:16:38.414Z,20.15
2017-06-20T06:17:34.654Z,20.17
2017-06-20T06:18:30.918Z,20.20
2017-06-20T06:19:27.167Z,20.23
2017-06-20T06:20:23.408Z,20.28
2017-06-20T06:21:19.646Z,20.31
2017-06-20T06:22:15.899Z,20.35
2017-06-20T06:23:12.138Z,20.37
2017-06-20T06:24:08.398Z,20.39
2017-06-20T06:25:04.657Z,20.42
2017-06-20T06:26:00.899Z,20.45
2017-06-20T06:26:57.151Z,20.49
2017-06-20T06:27:53.385Z,20.51
2017-06-20T06:28:49.625Z,20.54
2017-06-20T06:29:45.880Z,20.58
2017-06-20T06:30:42.122Z,20.60
2017-06-20T06:31:38.365Z,20.65
2017-06-20T06:32:34.619Z,20.68
2017-06-20T06:33:30.878Z,20.70
2017-06-20T06:34:27.138Z,20.73
2017-06-20T06:35:23.385Z,20.76
2017-06-20T06:36:19.635Z,20.78
2017-06-20T06:37:15.887Z,20.80
2017-06-20T06:38:12.139Z,20.83
2017-06-20T06:39:08.387Z,20.85
2017-06-20T06:40:04.650Z,20.88
2017-06-20T06:41:00.902Z,20.91
2017-06-20T06:41:57.138Z,20.92
2017-06-20T06:42:53.399Z,20.96
2017-06-20T06:43:49.654Z,20.98
2017-06-20T06:44:45.910Z,21.00
2017-06-20T06:45:42.158Z,21.03
2017-06-20T06:46:38.403Z,21.04
2017-06-20T06:47:34.647Z,21.07
2017-06-20T06:48:30.911Z,21.09
2017-06-20T06:49:27.147Z,21.11
2017-06-20T06:50:23.399Z,21.14
2017-06-20T06:51:19.639Z,21.15
2017-06-20T06:52:15.882Z,21.19
2017-06-20T06:53:12.127Z,21.22
2017-06-20T06:54:08.379Z,21.25
2017-06-20T06:55:04.615Z,21.27
2017-06-20T06:56:00.875Z,21.29
2017-06-20T06:56:57.111Z,21.31
2017-06-20T06:57:53.347Z,21.34
2017-06-20T06:58:49.590Z,21.38
2017-06-20T06:59:45.827Z,21.38
2017-06-20T07:00:42.082Z,21.41
2017-06-20T07:01:38.338Z,21.44
2017-06-20T07:02:34.586Z,21.47
2017-06-20T07:03:30.833Z,21.49
2017-06-20T07:04:27.091Z,21.52
2017-06-20T07:05:23.351Z,21.55
2017-06-20T07:06:19.606Z,21.58
2017-06-20T07:07:15.852Z,21.60
2017-06-20T07:08:12.098Z,21.61
2017-06-20T07:09:08.347Z,21.64
2017-06-20T07:10:04.583Z,21.67
2017-06-20T07:11:00.823Z,21.68
2017-06-20T07:11:57.095Z,21.72
2017-06-20T07:12:53.343Z,21.73
2017-06-20T07:13:49.579Z,21.76
2017-06-20T07:14:45.819Z,21.77
2017-06-20T07:15:42.076Z,21.81
2017-06-20T07:16:38.319Z,21.82
2017-06-20T07:17:34.594Z,21.84
2017-06-20T07:18:30.847Z,21.87
2017-06-20T07:19:27.097Z,21.90
2017-06-20T07:20:23.346Z,21.93
2017-06-20T07:21:19.604Z,21.97
2017-06-20T07:22:15.871Z,21.98
2017-06-20T07:23:12.131Z,22.01
2017-06-20T07:24:08.375Z,22.04
2017-06-20T07:25:04.606Z,22.08
2017-06-20T07:26:00.847Z,22.11
2017-06-20T07:26:57.103Z,22.13
2017-06-20T07:27:53.398Z,22.16
2017-06-20T07:28:49.637Z,22.21
2017-06-20T07:29:45.870Z,22.24
2017-06-20T07:30:42.110Z,22.26
2017-06-20T07:31:38.354Z,22.29
2017-06-20T07:32:34.627Z,22.33
2017-06-20T07:33:30.890Z,22.35
2017-06-20T07:34:27.135Z,22.38
2017-06-20T07:35:23.391Z,22.41
2017-06-20T07:36:19.628Z,22.44
2017-06-20T07:37:15.878Z,22.47
2017-06-20T07:38:12.138Z,22.50
2017-06-20T07:39:08.378Z,22.55
2017-06-20T07:40:04.683Z,22.58
2017-06-20T07:41:00.918Z,22.63
2017-06-20T07:41:57.172Z,22.68
2017-06-20T07:42:53.410Z,22.74
2017-06-20T07:43:49.671Z,22.82
2017-06-20T07:44:45.923Z,22.86
2017-06-20T07:45:44.359Z,22.90
2017-06-20T07:46:40.659Z,22.94
2017-06-20T07:47:36.930Z,22.98
2017-06-20T07:48:33.224Z,23.04
2017-06-20T07:49:29.619Z,23.09
2017-06-20T07:50:25.882Z,23.12
2017-06-20T07:51:22.162Z,23.18
2017-06-20T07:52:18.416Z,23.22
2017-06-20T07:53:14.678Z,23.24
2017-06-20T07:54:10.990Z,23.29
2017-06-20T07:55:07.263Z,23.32
2017-06-20T07:56:03.510Z,23.37
2017-06-20T07:56:59.771Z,23.42
2017-06-20T07:57:56.030Z,23.47
2017-06-20T07:58:52.290Z,23.53
2017-06-20T07:59:48.547Z,23.57
2017-06-20T08:00:44.800Z,23.61
2017-06-20T08:01:41.034Z,23.63
2017-06-20T08:02:37.283Z,23.67
2017-06-20T08:03:33.569Z,23.70
2017-06-20T08:04:29.798Z,23.73
2017-06-20T08:05:26.058Z,23.76
2017-06-20T08:06:22.298Z,23.79
2017-06-20T08:07:18.534Z,23.83
2017-06-20T08:08:14.775Z,23.87
2017-06-20T08:09:11.015Z,23.90
2017-06-20T08:10:07.267Z,23.93
2017-06-20T08:11:03.551Z,23.96
2017-06-20T08:11:59.790Z,23.98
2017-06-20T08:12:56.039Z,24.02
2017-06-20T08:13:52.283Z,24.07
2017-06-20T08:14:49.434Z,24.12
2017-06-20T08:15:45.678Z,24.18
2017-06-20T08:16:41.946Z,24.23
2017-06-20T08:17:38.206Z,24.29
2017-06-20T08:18:34.459Z,24.35
2017-06-20T08:19:30.738Z,24.40
2017-06-20T08:20:26.982Z,24.45
2017-06-20T08:21:24.131Z,24.51
2017-06-20T08:22:25.067Z,24.57
2017-06-20T08:23:21.313Z,24.61
2017-06-20T08:24:17.562Z,24.66
2017-06-20T08:25:13.803Z,24.69
2017-06-20T08:26:10.039Z,24.72
2017-06-20T08:27:06.310Z,24.74
2017-06-20T08:28:02.556Z,24.77
2017-06-20T08:28:58.802Z,24.81
2017-06-20T08:29:55.051Z,24.82
2017-06-20T08:30:51.287Z,24.86
2017-06-20T08:31:47.535Z,24.87
2017-06-20T08:32:43.799Z,24.90
2017-06-20T08:33:40.051Z,24.92
2017-06-20T08:34:36.303Z,24.94
2017-06-20T08:35:32.559Z,24.96
2017-06-20T08:36:28.852Z,24.98
2017-06-20T08:37:25.119Z,25.02
2017-06-20T08:38:21.387Z,25.05
2017-06-20T08:39:17.634Z,25.10
2017-06-20T08:40:15.415Z,25.15
2017-06-20T08:41:11.668Z,25.19
2017-06-20T08:42:07.907Z,25.25
2017-06-20T08:43:04.167Z,25.29
2017-06-20T08:44:00.411Z,25.35
2017-06-20T08:44:56.655Z,25.39
2017-06-20T08:45:52.903Z,25.45
2017-06-20T08:46:49.143Z,25.51
2017-06-20T08:47:45.397Z,25.57
2017-06-20T08:48:41.654Z,25.63
2017-06-20T08:49:37.898Z,25.69
2017-06-20T08:50:34.152Z,25.72
2017-06-20T08:51:30.407Z,25.78
2017-06-20T08:52:26.654Z,25.82
2017-06-20T08:53:22.906Z,25.85
2017-06-20T08:54:19.187Z,25.90
2017-06-20T08:55:15.433Z,25.95
2017-06-20T08:56:11.667Z,26.02
2017-06-20T08:57:07.919Z,26.08
2017-06-20T08:58:04.161Z,26.13
2017-06-20T08:59:00.419Z,26.17
2017-06-20T08:59:56.671Z,26.21
2017-06-20T09:00:52.923Z,26.27
2017-06-20T09:01:49.173Z,26.35
2017-06-20T09:02:45.434Z,26.42
2017-06-20T09:03:41.679Z,26.49
2017-06-20T09:04:37.957Z,26.57
2017-06-20T09:05:34.207Z,26.67
2017-06-20T09:06:30.448Z,26.77
2017-06-20T09:07:26.703Z,26.90
2017-06-20T09:08:22.947Z,27.02
2017-06-20T09:09:19.206Z,27.15
2017-06-20T09:10:15.459Z,27.27
2017-06-20T09:11:11.720Z,27.39
2017-06-20T09:12:07.976Z,27.53
2017-06-20T09:13:04.235Z,27.66
2017-06-20T09:14:00.479Z,27.80
2017-06-20T09:14:56.763Z,27.92
2017-06-20T09:15:53.038Z,28.06
2017-06-20T09:16:49.278Z,28.18
2017-06-20T09:17:45.530Z,28.32
2017-06-20T09:18:41.770Z,28.45
2017-06-20T09:19:38.010Z,28.58
2017-06-20T09:20:34.275Z,28.68
2017-06-20T09:21:30.522Z,28.79
2017-06-20T09:22:26.767Z,28.90
2017-06-20T09:23:23.015Z,29.01
2017-06-20T09:24:19.281Z,29.13
2017-06-20T09:25:15.527Z,29.27
2017-06-20T09:26:11.799Z,29.43
2017-06-20T09:27:08.050Z,29.58
2017-06-20T09:28:04.300Z,29.72
2017-06-20T09:29:00.551Z,29.87
2017-06-20T09:29:56.790Z,30.04
2017-06-20T09:30:53.063Z,30.21
2017-06-20T09:31:49.303Z,30.38
2017-06-20T09:32:45.563Z,30.54
2017-06-20T09:33:41.812Z,30.69
2017-06-20T09:34:38.067Z,30.83
2017-06-20T09:35:34.318Z,30.97
2017-06-20T09:36:30.587Z,31.11
2017-06-20T09:37:26.840Z,31.24
2017-06-20T09:38:23.082Z,31.39
2017-06-20T09:39:19.326Z,31.53
2017-06-20T09:40:15.579Z,31.66
2017-06-20T09:41:11.835Z,31.80
2017-06-20T09:42:08.127Z,31.94
2017-06-20T09:43:04.366Z,32.06
2017-06-20T09:44:05.298Z,32.17
2017-06-20T09:45:01.574Z,32.29
2017-06-20T09:45:57.863Z,32.40
2017-06-20T09:46:54.111Z,32.51
2017-06-20T09:47:50.361Z,32.62
2017-06-20T09:48:46.614Z,32.72
2017-06-20T09:49:42.852Z,32.84
2017-06-20T09:50:39.103Z,32.92
2017-06-20T09:51:35.347Z,33.00
2017-06-20T09:52:31.609Z,33.07
2017-06-20T09:53:27.847Z,33.15
2017-06-20T09:54:24.722Z,33.22
2017-06-20T09:55:21.011Z,33.29
2017-06-20T09:56:21.962Z,33.37
2017-06-20T09:57:18.209Z,33.43
2017-06-20T09:58:14.482Z,33.49
2017-06-20T09:59:10.723Z,33.54
2017-06-20T10:00:06.965Z,33.60
2017-06-20T10:01:03.219Z,33.66
2017-06-20T10:01:59.482Z,33.72
2017-06-20T10:02:55.738Z,33.78
2017-06-20T10:03:51.995Z,33.84
2017-06-20T10:04:48.237Z,33.90
2017-06-20T10:05:44.477Z,33.95
2017-06-20T10:06:40.722Z,33.99
2017-06-20T10:07:36.987Z,34.03
2017-06-20T10:08:33.267Z,34.07
2017-06-20T10:09:29.515Z,34.12
2017-06-20T10:10:25.754Z,34.15
2017-06-20T10:11:21.995Z,34.19
2017-06-20T10:12:18.234Z,34.22
2017-06-20T10:13:14.482Z,34.25
2017-06-20T10:14:10.735Z,34.27
2017-06-20T10:15:06.986Z,34.29
2017-06-20T10:16:03.230Z,34.31
2017-06-20T10:16:59.470Z,34.35
2017-06-20T10:17:55.724Z,34.37
2017-06-20T10:18:51.975Z,34.39
2017-06-20T10:19:48.231Z,34.40
2017-06-20T10:20:44.471Z,34.40
2017-06-20T10:21:40.731Z,34.40
2017-06-20T10:22:36.967Z,34.39
2017-06-20T10:23:33.235Z,34.38
2017-06-20T10:24:29.477Z,34.56
2017-06-20T10:25:25.771Z,34.92
2017-06-20T10:26:22.015Z,35.26
2017-06-20T10:27:18.259Z,35.56
2017-06-20T10:28:14.512Z,35.77
2017-06-20T10:29:10.778Z,35.98
2017-06-20T10:30:07.031Z,36.11
2017-06-20T10:31:03.323Z,36.24
2017-06-20T10:31:59.591Z,36.34
2017-06-20T10:32:55.851Z,36.44
2017-06-20T10:33:52.094Z,36.55
2017-06-20T10:34:48.350Z,36.62
2017-06-20T10:35:44.624Z,36.70
2017-06-20T10:36:40.891Z,36.77
2017-06-20T10:37:37.147Z,36.85
2017-06-20T10:38:33.402Z,36.91
2017-06-20T10:39:29.658Z,36.97
2017-06-20T10:40:25.914Z,37.01
2017-06-20T10:41:22.178Z,37.04
2017-06-20T10:42:18.443Z,37.06
2017-06-20T10:43:14.694Z,37.08
2017-06-20T10:44:10.953Z,37.07
2017-06-20T10:45:07.239Z,37.09
2017-06-20T10:46:03.494Z,37.11
2017-06-20T10:46:59.759Z,37.13
2017-06-20T10:47:56.850Z,37.18
2017-06-20T10:48:53.098Z,37.21
2017-06-20T10:49:49.347Z,37.24
2017-06-20T10:50:45.598Z,37.29
2017-06-20T10:51:41.884Z,37.33
2017-06-20T10:52:38.143Z,37.37
2017-06-20T10:53:34.400Z,37.41
2017-06-20T10:54:30.653Z,37.44
2017-06-20T10:55:26.895Z,37.46
2017-06-20T10:56:23.146Z,37.50
2017-06-20T10:57:19.426Z,37.51
2017-06-20T10:58:15.671Z,37.56
2017-06-20T10:59:11.915Z,37.58
2017-06-20T11:00:08.183Z,37.60
2017-06-20T11:01:04.447Z,37.58
2017-06-20T11:02:00.715Z,37.58
2017-06-20T11:02:56.993Z,37.59
2017-06-20T11:03:53.255Z,37.60
2017-06-20T11:04:49.527Z,37.61
2017-06-20T11:05:45.784Z,37.62
2017-06-20T11:06:42.042Z,37.64
2017-06-20T11:07:38.295Z,37.66
2017-06-20T11:08:34.603Z,37.65
2017-06-20T11:09:30.875Z,37.66
2017-06-20T11:10:27.114Z,37.67
2017-06-20T11:11:23.363Z,37.69
2017-06-20T11:12:19.622Z,37.69
2017-06-20T11:13:15.916Z,37.71
2017-06-20T11:14:12.198Z,37.71
2017-06-20T11:15:08.451Z,37.73
2017-06-20T11:16:04.702Z,37.72
2017-06-20T11:17:00.967Z,37.70
2017-06-20T11:17:57.215Z,37.70
2017-06-20T11:18:53.482Z,37.68
2017-06-20T11:19:49.818Z,37.68
2017-06-20T11:20:46.063Z,37.64
2017-06-20T11:21:42.331Z,37.61
2017-06-20T11:22:38.590Z,37.60
2017-06-20T11:23:34.846Z,37.59
2017-06-20T11:24:31.114Z,37.59
2017-06-20T11:25:27.359Z,37.59
2017-06-20T11:26:23.606Z,37.60
2017-06-20T11:27:19.855Z,37.60
2017-06-20T11:28:16.097Z,37.59
2017-06-20T11:29:12.366Z,37.59
2017-06-20T11:30:08.636Z,37.57
2017-06-20T11:31:04.888Z,37.58
2017-06-20T11:32:01.151Z,37.58
2017-06-20T11:32:57.402Z,37.59
2017-06-20T11:33:53.659Z,37.60
2017-06-20T11:34:49.926Z,37.61
2017-06-20T11:35:46.190Z,37.62
2017-06-20T11:36:42.438Z,37.61
2017-06-20T11:37:38.698Z,37.62
2017-06-20T11:38:34.951Z,37.62
2017-06-20T11:39:31.198Z,37.59
2017-06-20T11:40:27.458Z,37.55
2017-06-20T11:41:23.712Z,37.50
2017-06-20T11:42:19.971Z,37.44
2017-06-20T11:43:16.228Z,37.37
2017-06-20T11:44:12.487Z,37.29
2017-06-20T11:45:08.772Z,37.23
2017-06-20T11:46:05.026Z,37.19
2017-06-20T11:47:01.290Z,37.17
2017-06-20T11:47:57.548Z,37.16
2017-06-20T11:48:53.806Z,37.15
2017-06-20T11:49:50.067Z,37.16
2017-06-20T11:50:46.335Z,37.16
2017-06-20T11:51:42.591Z,37.20
2017-06-20T11:52:38.847Z,37.22
2017-06-20T11:53:35.098Z,37.24
2017-06-20T11:54:31.360Z,37.23
2017-06-20T11:55:27.631Z,37.23
2017-06-20T11:56:23.902Z,37.20
2017-06-20T11:57:20.155Z,37.16
2017-06-20T11:58:16.415Z,37.12
2017-06-20T11:59:12.672Z,37.08
2017-06-20T12:00:08.927Z,37.02
2017-06-20T12:01:05.199Z,36.96
2017-06-20T12:02:01.467Z,36.93
2017-06-20T12:02:57.728Z,36.90
2017-06-20T12:03:53.994Z,36.89
2017-06-20T12:04:50.248Z,36.86
2017-06-20T12:05:46.516Z,36.86